Time;durP1;ratioP1;P1;durP2;ratioP2;P2;SDS_P1;SDS_P2;PMS_P1;PMS_P2;Temp;Humidity;BMP_temperature;BMP_pressure;BME280_temperature;BME280_humidity;BME280_pressure;Samples;Min_cycle;Max_cycle;Signal;HPM_P1;HPM_P2
2021/09/18 00:02:23;;;;;;;36.95;26.92;;;17.10;99.90;;;;;;5069370;28;20107;-78
2021/09/18 00:04:49;;;;;;;35.08;25.65;;;17.10;99.90;;;;;;5071379;28;20031;-78
2021/09/18 00:07:15;;;;;;;30.15;24.48;;;17.10;99.90;;;;;;5069317;28;20028;-78
2021/09/18 00:09:40;;;;;;;28.13;21.88;;;17.10;99.90;;;;;;5069065;28;20025;-78
2021/09/18 00:12:06;;;;;;;32.00;23.75;;;17.00;99.90;;;;;;5071787;28;20036;-78
2021/09/18 00:14:33;;;;;;;28.33;22.08;;;16.90;99.90;;;;;;5066594;28;20033;-78
2021/09/18 00:16:58;;;;;;;34.80;23.83;;;16.90;99.90;;;;;;5070264;28;20465;-78
2021/09/18 00:19:24;;;;;;;29.35;20.75;;;16.80;99.90;;;;;;5072716;28;20024;-78
2021/09/18 00:21:50;;;;;;;27.63;21.50;;;16.90;99.90;;;;;;5071639;28;20553;-78
2021/09/18 00:24:16;;;;;;;32.17;22.17;;;16.80;99.90;;;;;;5063903;28;20103;-78
2021/09/18 00:26:42;;;;;;;32.55;23.05;;;16.80;99.90;;;;;;5073157;28;20426;-79
2021/09/18 00:29:08;;;;;;;28.90;22.63;;;16.80;99.90;;;;;;5071973;28;20025;-79
2021/09/18 00:31:33;;;;;;;29.30;22.15;;;16.80;99.90;;;;;;5072393;28;20028;-79
2021/09/18 00:33:59;;;;;;;32.63;24.02;;;16.80;99.90;;;;;;5077704;28;20441;-79
2021/09/18 00:36:25;;;;;;;33.92;24.40;;;16.70;99.90;;;;;;5075066;28;20035;-79
2021/09/18 00:38:51;;;;;;;32.38;22.48;;;16.70;99.90;;;;;;5076990;28;20082;-78
2021/09/18 00:41:17;;;;;;;30.52;22.42;;;16.70;99.90;;;;;;5077669;28;20063;-79
2021/09/18 00:43:49;;;;;;;29.50;21.00;;;16.70;99.90;;;;;;5079769;28;20024;-79
2021/09/18 00:46:15;;;;;;;30.77;24.83;;;16.60;99.90;;;;;;5072823;28;20020;-78
2021/09/18 00:48:41;;;;;;;27.02;19.77;;;16.70;99.90;;;;;;5074552;28;20484;-78
2021/09/18 00:51:07;;;;;;;28.95;21.58;;;16.60;99.90;;;;;;5074651;28;20028;-78
2021/09/18 00:53:32;;;;;;;30.90;22.83;;;16.50;99.90;;;;;;5073264;28;20033;-79
2021/09/18 00:55:59;;;;;;;34.55;24.98;;;16.50;99.90;;;;;;5067400;28;20097;-78
2021/09/18 00:58:25;;;;;;;34.97;23.67;;;16.50;99.90;;;;;;5079923;28;20024;-78
2021/09/18 01:00:51;;;;;;;31.65;23.27;;;16.50;99.90;;;;;;5072120;28;20031;-78
2021/09/18 01:03:17;;;;;;;28.55;21.83;;;16.50;99.90;;;;;;5073166;28;20029;-78
2021/09/18 01:05:42;;;;;;;31.33;24.70;;;16.50;99.90;;;;;;5078340;28;20036;-78
2021/09/18 01:08:11;;;;;;;29.92;22.70;;;16.50;99.90;;;;;;5078451;28;20020;-78
2021/09/18 01:10:37;;;;;;;29.33;23.67;;;16.40;99.90;;;;;;5077723;28;20024;-79
2021/09/18 01:13:18;;;;;;;31.52;23.83;;;16.40;99.90;;;;;;5066592;28;20065;-78
2021/09/18 01:15:45;;;;;;;34.90;24.75;;;16.40;99.90;;;;;;5080245;28;20483;-78
2021/09/18 01:18:11;;;;;;;27.65;22.25;;;16.40;99.90;;;;;;5067850;28;20035;-78
2021/09/18 01:20:39;;;;;;;30.83;23.13;;;16.30;99.90;;;;;;5079149;28;20115;-78
2021/09/18 01:23:06;;;;;;;29.00;21.73;;;16.30;99.90;;;;;;5072131;28;20118;-78
2021/09/18 01:25:38;;;;;;;27.85;19.88;;;16.20;99.90;;;;;;5071411;28;20098;-78
2021/09/18 01:28:06;;;;;;;34.28;21.35;;;16.20;99.90;;;;;;5073971;28;20037;-78
2021/09/18 01:30:34;;;;;;;26.13;21.55;;;16.20;99.90;;;;;;5078051;28;20382;-78
2021/09/18 01:33:02;;;;;;;30.55;23.90;;;16.20;99.90;;;;;;5079802;28;20035;-77
2021/09/18 01:35:28;;;;;;;26.80;21.88;;;16.30;99.90;;;;;;5075698;28;20384;-78
2021/09/18 01:37:54;;;;;;;28.23;21.10;;;16.20;99.90;;;;;;5074162;28;20099;-77
2021/09/18 01:40:26;;;;;;;31.52;21.55;;;16.20;99.90;;;;;;5071592;28;20529;-78
2021/09/18 01:42:53;;;;;;;27.13;21.77;;;16.20;99.90;;;;;;5078518;28;20025;-78
2021/09/18 01:45:19;;;;;;;29.70;22.77;;;16.20;99.90;;;;;;5072969;28;20480;-78
2021/09/18 01:47:48;;;;;;;26.77;20.73;;;16.20;99.90;;;;;;5073227;28;20055;-78
2021/09/18 01:50:27;;;;;;;28.73;21.92;;;16.10;99.90;;;;;;5071105;28;20055;-78
2021/09/18 01:53:02;;;;;;;30.58;22.60;;;16.10;99.90;;;;;;5080884;28;20069;-78
2021/09/18 01:55:29;;;;;;;35.40;24.35;;;16.10;99.90;;;;;;5066397;28;20031;-78
2021/09/18 01:57:57;;;;;;;28.10;21.45;;;16.10;99.90;;;;;;5079509;28;20732;-78
2021/09/18 02:00:23;;;;;;;30.17;22.48;;;16.00;99.90;;;;;;5076860;28;20024;-79
2021/09/18 02:02:49;;;;;;;30.55;20.85;;;15.80;99.90;;;;;;5072611;28;20040;-79
2021/09/18 02:05:18;;;;;;;29.55;21.13;;;15.90;99.90;;;;;;5078742;28;20609;-79
2021/09/18 02:07:45;;;;;;;28.67;22.77;;;15.90;99.90;;;;;;5064589;28;20031;-78
2021/09/18 02:10:14;;;;;;;34.47;23.55;;;15.90;99.90;;;;;;5077682;28;20022;-78
2021/09/18 02:12:40;;;;;;;33.67;24.27;;;15.80;99.90;;;;;;5071862;28;20055;-78
2021/09/18 02:15:08;;;;;;;33.17;25.30;;;15.80;99.90;;;;;;5073725;28;20473;-78
2021/09/18 02:17:34;;;;;;;33.85;24.92;;;15.80;99.90;;;;;;5077539;28;20024;-78
2021/09/18 02:20:00;;;;;;;33.63;25.95;;;15.80;99.90;;;;;;5075390;28;20065;-78
2021/09/18 02:22:26;;;;;;;35.42;24.50;;;15.80;99.90;;;;;;5072575;28;20036;-78
2021/09/18 02:24:52;;;;;;;32.25;24.20;;;15.80;99.90;;;;;;5075327;28;20021;-78
2021/09/18 02:27:17;;;;;;;31.88;24.15;;;15.80;99.90;;;;;;5074798;28;20017;-78
2021/09/18 02:29:43;;;;;;;34.25;23.98;;;15.80;99.90;;;;;;5075996;28;20024;-78
2021/09/18 02:32:09;;;;;;;42.97;26.77;;;15.80;99.90;;;;;;5076904;28;20032;-78
2021/09/18 02:34:35;;;;;;;38.78;27.52;;;15.70;99.90;;;;;;5073243;28;20028;-78
2021/09/18 02:37:00;;;;;;;43.50;29.55;;;15.70;99.90;;;;;;5075712;28;20059;-77
2021/09/18 02:39:26;;;;;;;37.47;26.80;;;15.70;99.90;;;;;;5081474;28;20488;-77
2021/09/18 02:41:52;;;;;;;41.65;27.50;;;15.70;99.90;;;;;;5076020;28;20033;-77
2021/09/18 02:44:18;;;;;;;37.67;24.90;;;15.70;99.90;;;;;;5075307;28;20070;-78
2021/09/18 02:46:44;;;;;;;42.25;27.58;;;15.60;99.90;;;;;;5073641;28;20032;-77
2021/09/18 02:49:11;;;;;;;42.47;25.63;;;15.60;99.90;;;;;;5075455;28;20035;-77
2021/09/18 02:51:37;;;;;;;26.73;19.92;;;15.50;99.90;;;;;;5079154;28;20107;-77
2021/09/18 02:54:03;;;;;;;27.73;19.80;;;15.50;99.90;;;;;;5066310;28;20513;-77
2021/09/18 02:56:28;;;;;;;29.98;20.98;;;15.50;99.90;;;;;;5075949;28;20157;-77
2021/09/18 02:58:54;;;;;;;29.10;21.15;;;15.50;99.90;;;;;;5076508;28;20037;-77
2021/09/18 03:01:20;;;;;;;30.42;22.50;;;15.50;99.90;;;;;;5075803;28;20461;-77
2021/09/18 03:03:46;;;;;;;33.22;24.92;;;15.50;99.90;;;;;;5068170;28;20483;-78
2021/09/18 03:06:11;;;;;;;33.13;22.15;;;15.50;99.90;;;;;;5070487;28;20029;-78
2021/09/18 03:08:38;;;;;;;34.22;23.25;;;15.50;99.90;;;;;;5076651;28;20051;-77
2021/09/18 03:11:04;;;;;;;35.03;24.10;;;15.50;99.90;;;;;;5071449;28;20114;-77
2021/09/18 03:13:30;;;;;;;38.42;24.65;;;15.50;99.90;;;;;;5072325;28;20066;-77
2021/09/18 03:15:56;;;;;;;39.80;26.65;;;15.40;99.90;;;;;;5075779;28;20025;-77
2021/09/18 03:18:21;;;;;;;45.75;27.75;;;15.40;99.90;;;;;;5074961;28;20025;-77
2021/09/18 03:20:47;;;;;;;43.28;24.60;;;15.40;99.90;;;;;;5069500;28;20060;-77
2021/09/18 03:23:14;;;;;;;35.50;23.30;;;15.30;99.90;;;;;;5077789;28;20048;-77
2021/09/18 03:25:42;;;;;;;35.75;23.90;;;15.30;99.90;;;;;;5066113;28;20040;-77
2021/09/18 03:28:09;;;;;;;32.75;22.38;;;15.30;99.90;;;;;;5075462;28;20024;-77
2021/09/18 03:30:35;;;;;;;34.80;22.55;;;15.30;99.90;;;;;;5075709;28;20020;-77
2021/09/18 03:33:00;;;;;;;35.88;24.10;;;15.30;99.90;;;;;;5069416;28;20492;-77
2021/09/18 03:35:27;;;;;;;36.17;23.27;;;15.30;99.90;;;;;;5076197;28;20028;-77
2021/09/18 03:37:53;;;;;;;36.40;23.42;;;15.30;99.90;;;;;;5084563;28;20089;-77
2021/09/18 03:40:19;;;;;;;37.42;23.42;;;15.20;99.90;;;;;;5074330;28;20032;-77
2021/09/18 03:42:45;;;;;;;40.30;23.77;;;15.20;99.90;;;;;;5080918;28;20469;-77
2021/09/18 03:45:10;;;;;;;39.33;24.55;;;15.20;99.90;;;;;;5077292;28;20013;-77
2021/09/18 03:47:37;;;;;;;31.58;21.88;;;15.10;99.90;;;;;;5078535;28;20037;-77
2021/09/18 03:50:04;;;;;;;31.65;21.50;;;15.10;99.90;;;;;;5068203;28;20059;-77
2021/09/18 03:52:30;;;;;;;31.33;21.70;;;15.00;99.90;;;;;;5075905;28;20492;-78
2021/09/18 03:54:56;;;;;;;30.20;20.95;;;15.00;99.90;;;;;;5074831;28;20024;-77
2021/09/18 03:57:22;;;;;;;34.85;21.60;;;14.90;99.90;;;;;;5075124;28;20134;-77
2021/09/18 03:59:48;;;;;;;31.65;22.33;;;14.90;99.90;;;;;;5078194;28;20028;-77
2021/09/18 04:02:14;;;;;;;36.00;23.02;;;14.80;99.90;;;;;;5074858;28;20409;-77
2021/09/18 04:04:40;;;;;;;32.80;20.92;;;14.80;99.90;;;;;;5075130;28;20486;-77
2021/09/18 04:07:05;;;;;;;41.28;24.33;;;14.90;99.90;;;;;;5074786;28;20093;-77
2021/09/18 04:09:31;;;;;;;44.55;28.15;;;14.90;99.90;;;;;;5078837;28;20372;-77
2021/09/18 04:11:57;;;;;;;47.72;28.08;;;14.90;99.90;;;;;;5077360;28;20036;-77
2021/09/18 04:14:22;;;;;;;45.45;27.05;;;14.90;99.90;;;;;;5072460;28;20135;-77
2021/09/18 04:16:48;;;;;;;53.35;30.63;;;14.90;99.90;;;;;;5076886;28;20021;-77
2021/09/18 04:19:14;;;;;;;47.97;28.73;;;14.90;99.90;;;;;;5075681;28;20024;-77
2021/09/18 04:21:40;;;;;;;49.42;28.92;;;14.90;99.90;;;;;;5079676;28;20557;-77
2021/09/18 04:24:06;;;;;;;48.22;27.10;;;14.90;99.90;;;;;;5065676;28;20099;-77
2021/09/18 04:26:33;;;;;;;41.72;25.60;;;14.80;99.90;;;;;;5073877;28;20520;-77
2021/09/18 04:28:59;;;;;;;45.10;26.60;;;14.70;99.90;;;;;;5073664;28;20550;-77
2021/09/18 04:31:25;;;;;;;44.65;27.98;;;14.60;99.90;;;;;;5080150;28;20024;-77
2021/09/18 04:33:51;;;;;;;50.72;29.80;;;14.70;99.90;;;;;;5077499;28;20062;-77
2021/09/18 04:36:17;;;;;;;47.05;28.58;;;14.70;99.90;;;;;;5075985;28;20029;-76
2021/09/18 04:38:43;;;;;;;46.13;28.70;;;14.70;99.90;;;;;;5071122;28;20024;-75
2021/09/18 04:41:09;;;;;;;47.45;29.15;;;14.70;99.90;;;;;;5073104;28;20035;-77
2021/09/18 04:43:35;;;;;;;48.03;28.27;;;14.70;99.90;;;;;;5080473;28;20461;-77
2021/09/18 04:46:01;;;;;;;46.08;28.80;;;14.70;99.90;;;;;;5070602;28;20103;-76
2021/09/18 04:48:26;;;;;;;47.15;29.60;;;14.70;99.90;;;;;;5075175;28;20028;-77
2021/09/18 04:50:52;;;;;;;48.25;27.52;;;14.70;99.90;;;;;;5075827;28;20043;-77
2021/09/18 04:53:18;;;;;;;44.95;27.15;;;14.60;99.90;;;;;;5077309;28;20119;-77
2021/09/18 04:55:44;;;;;;;52.55;29.23;;;14.70;99.90;;;;;;5073652;28;20024;-76
2021/09/18 04:58:10;;;;;;;55.20;31.42;;;14.60;99.90;;;;;;5074075;28;20523;-76
2021/09/18 05:00:36;;;;;;;52.72;30.50;;;14.50;99.90;;;;;;5076291;28;20121;-76
2021/09/18 05:03:02;;;;;;;61.60;33.30;;;14.50;99.90;;;;;;5073711;28;20362;-76
2021/09/18 05:05:28;;;;;;;58.78;30.67;;;14.50;99.90;;;;;;5077295;28;20032;-76
2021/09/18 05:07:55;;;;;;;38.92;25.92;;;14.30;99.90;;;;;;5085348;28;20032;-77
2021/09/18 05:10:20;;;;;;;42.80;26.65;;;14.30;99.90;;;;;;5073740;28;20388;-76
2021/09/18 05:12:46;;;;;;;41.80;26.95;;;14.20;99.90;;;;;;5075089;28;20032;-76
2021/09/18 05:15:12;;;;;;;54.30;30.85;;;14.30;99.90;;;;;;5076771;28;20024;-76
2021/09/18 05:17:38;;;;;;;54.28;30.20;;;14.40;99.90;;;;;;5073504;28;20035;-77
2021/09/18 05:20:04;;;;;;;48.38;29.77;;;14.50;99.90;;;;;;5074973;28;20039;-76
2021/09/18 05:22:30;;;;;;;55.40;31.00;;;14.50;99.90;;;;;;5075132;28;20032;-76
2021/09/18 05:24:56;;;;;;;59.00;34.05;;;14.50;99.90;;;;;;5077465;28;20028;-76
2021/09/18 05:27:22;;;;;;;55.60;32.15;;;14.50;99.90;;;;;;5074778;28;20037;-76
2021/09/18 05:29:47;;;;;;;55.20;31.02;;;14.50;99.90;;;;;;5078110;28;20090;-76
2021/09/18 05:32:13;;;;;;;53.00;31.02;;;14.50;99.90;;;;;;5072545;28;20029;-76
2021/09/18 05:34:39;;;;;;;52.72;31.60;;;14.50;99.90;;;;;;5073177;28;20029;-76
2021/09/18 05:37:05;;;;;;;77.32;38.60;;;14.40;99.90;;;;;;5075975;28;20028;-76
2021/09/18 05:39:32;;;;;;;52.03;32.60;;;14.50;99.90;;;;;;5073143;28;20851;-81
2021/09/18 05:41:58;;;;;;;57.05;31.10;;;14.40;99.90;;;;;;5069172;28;20021;-77
2021/09/18 05:44:24;;;;;;;61.10;34.28;;;14.40;99.90;;;;;;5078158;28;20077;-76
2021/09/18 05:46:49;;;;;;;58.35;34.00;;;14.40;99.90;;;;;;5076256;28;20123;-77
2021/09/18 05:49:15;;;;;;;57.55;34.55;;;14.40;99.90;;;;;;5069978;28;20114;-75
2021/09/18 05:51:41;;;;;;;71.07;38.80;;;14.40;99.90;;;;;;5074970;28;20029;-76
2021/09/18 05:54:07;;;;;;;338.77;63.15;;;14.40;99.90;;;;;;5076966;28;20028;-75
2021/09/18 05:56:33;;;;;;;139.18;48.63;;;14.40;99.90;;;;;;5072217;28;20059;-76
2021/09/18 05:59:03;;;;;;;97.97;44.47;;;14.40;99.90;;;;;;5074747;28;20064;-76
2021/09/18 06:01:30;;;;;;;90.45;43.80;;;14.40;99.90;;;;;;5072184;28;20029;-76
2021/09/18 06:03:56;;;;;;;130.77;46.70;;;14.50;99.90;;;;;;5073687;28;20032;-76
2021/09/18 06:06:22;;;;;;;90.75;44.15;;;14.50;99.90;;;;;;5075484;28;20021;-76
2021/09/18 06:08:47;;;;;;;82.85;41.90;;;14.50;99.90;;;;;;5072593;28;20025;-76
2021/09/18 06:11:13;;;;;;;104.82;46.95;;;14.60;99.90;;;;;;5079359;28;20059;-76
2021/09/18 06:13:39;;;;;;;79.93;41.35;;;14.60;99.90;;;;;;5072118;28;20683;-76
2021/09/18 06:16:05;;;;;;;118.45;47.35;;;14.70;99.90;;;;;;5072798;28;20067;-76
2021/09/18 06:18:31;;;;;;;74.97;40.13;;;14.70;99.90;;;;;;5073359;28;20056;-77
2021/09/18 06:20:59;;;;;;;65.72;36.85;;;14.60;99.90;;;;;;5069082;28;20056;-76
2021/09/18 06:23:26;;;;;;;66.68;35.38;;;14.70;99.90;;;;;;5068896;28;20029;-76
2021/09/18 06:25:52;;;;;;;69.95;36.00;;;14.70;99.90;;;;;;5076178;28;20033;-76
2021/09/18 06:28:18;;;;;;;106.90;44.10;;;14.80;99.90;;;;;;5083626;28;20040;-76
2021/09/18 06:30:44;;;;;;;100.30;44.85;;;14.70;99.90;;;;;;5079122;28;20031;-76
2021/09/18 06:33:10;;;;;;;160.35;50.00;;;14.60;99.90;;;;;;5072678;28;20508;-77
2021/09/18 06:35:36;;;;;;;79.72;36.40;;;14.70;99.90;;;;;;5077513;28;20025;-76
2021/09/18 06:38:02;;;;;;;60.85;34.50;;;14.60;99.90;;;;;;5072652;28;20021;-76
2021/09/18 06:40:28;;;;;;;73.55;38.70;;;14.60;99.90;;;;;;5064155;28;20028;-77
2021/09/18 06:42:54;;;;;;;65.20;35.33;;;14.60;99.90;;;;;;5071856;28;20024;-76
2021/09/18 06:45:20;;;;;;;68.00;37.00;;;14.60;99.90;;;;;;5071989;28;20032;-76
2021/09/18 06:47:46;;;;;;;62.95;35.78;;;14.70;99.90;;;;;;5076156;28;20115;-76
2021/09/18 06:50:11;;;;;;;67.38;39.63;;;14.60;99.90;;;;;;5073666;28;20020;-76
2021/09/18 06:52:37;;;;;;;71.40;41.17;;;14.80;99.90;;;;;;5075594;28;20158;-76
2021/09/18 06:55:04;;;;;;;67.47;38.17;;;14.90;99.90;;;;;;5075407;28;20488;-76
2021/09/18 06:57:32;;;;;;;66.72;39.47;;;14.90;99.90;;;;;;5074062;28;20033;-79
2021/09/18 06:59:57;;;;;;;108.13;48.15;;;15.00;99.90;;;;;;5068772;28;20035;-78
2021/09/18 07:02:23;;;;;;;75.38;44.08;;;15.00;99.90;;;;;;5069526;28;20016;-82
2021/09/18 07:04:50;;;;;;;74.72;45.80;;;15.00;99.90;;;;;;5070286;28;20114;-78
2021/09/18 07:07:15;;;;;;;305.70;61.97;;;15.00;99.90;;;;;;5075450;28;20025;-76
2021/09/18 07:09:41;;;;;;;87.35;50.83;;;15.10;99.90;;;;;;5080192;28;20503;-77
2021/09/18 07:12:07;;;;;;;289.25;71.05;;;15.10;99.90;;;;;;5076543;28;20101;-78
2021/09/18 07:14:33;;;;;;;206.95;68.43;;;15.20;99.90;;;;;;5071427;28;20027;-75
2021/09/18 07:17:00;;;;;;;102.85;57.58;;;15.30;99.90;;;;;;5072364;28;20028;-77
2021/09/18 07:19:25;;;;;;;102.68;55.58;;;15.40;99.90;;;;;;5069051;28;20017;-76
2021/09/18 07:21:51;;;;;;;106.53;54.17;;;15.40;99.90;;;;;;5073476;28;20032;-77
2021/09/18 07:24:17;;;;;;;173.88;67.57;;;15.50;99.90;;;;;;5072181;28;20372;-75
2021/09/18 07:26:42;;;;;;;99.55;58.75;;;15.50;99.90;;;;;;5067267;28;20040;-78
2021/09/18 07:29:08;;;;;;;107.30;56.47;;;15.60;99.90;;;;;;5081027;28;20024;-77
2021/09/18 07:31:34;;;;;;;105.22;54.78;;;15.60;99.90;;;;;;5076890;28;20028;-76
2021/09/18 07:33:59;;;;;;;117.80;57.40;;;15.70;99.90;;;;;;5080502;28;20121;-76
2021/09/18 07:36:25;;;;;;;98.53;55.28;;;15.70;99.90;;;;;;5077779;28;20027;-79
2021/09/18 07:38:51;;;;;;;94.80;56.35;;;15.80;99.90;;;;;;5089283;28;20032;-78
2021/09/18 07:41:17;;;;;;;155.13;56.65;;;15.80;99.90;;;;;;5077189;28;20081;-79
2021/09/18 07:43:43;;;;;;;102.68;60.65;;;15.90;99.90;;;;;;5076760;28;20020;-79
2021/09/18 07:46:09;;;;;;;500.15;96.22;;;16.00;99.90;;;;;;5080404;28;20021;-78
2021/09/18 07:48:35;;;;;;;128.38;62.10;;;16.10;99.90;;;;;;5074556;28;20036;-77
2021/09/18 07:51:02;;;;;;;188.27;69.55;;;16.00;99.90;;;;;;5071825;28;20106;-76
2021/09/18 07:53:28;;;;;;;126.72;67.13;;;15.90;99.90;;;;;;5075212;28;20121;-76
2021/09/18 07:55:54;;;;;;;143.38;71.60;;;16.00;99.90;;;;;;5079226;28;20075;-77
2021/09/18 07:58:19;;;;;;;120.40;68.95;;;16.10;99.90;;;;;;5076063;28;20041;-77
2021/09/18 08:00:46;;;;;;;146.70;71.18;;;16.20;99.90;;;;;;5072562;28;20009;-77
2021/09/18 08:03:13;;;;;;;165.65;70.18;;;16.30;99.90;;;;;;5070616;28;20084;-77
2021/09/18 08:05:39;;;;;;;98.20;58.42;;;16.30;99.90;;;;;;5073755;28;20020;-74
2021/09/18 08:08:04;;;;;;;104.65;59.58;;;16.40;99.90;;;;;;5084620;28;20043;-75
2021/09/18 08:10:30;;;;;;;108.47;64.50;;;16.40;99.90;;;;;;5073465;28;20034;-74
2021/09/18 08:12:56;;;;;;;117.00;69.53;;;16.40;99.90;;;;;;5077737;28;20513;-74
2021/09/18 08:15:23;;;;;;;155.93;75.05;;;16.40;99.90;;;;;;5069463;28;20080;-74
2021/09/18 08:17:50;;;;;;;178.32;86.93;;;16.40;99.90;;;;;;5080134;28;20024;-74
2021/09/18 08:20:17;;;;;;;124.53;70.30;;;16.60;99.90;;;;;;5071233;28;20083;-74
2021/09/18 08:22:43;;;;;;;186.18;92.28;;;16.60;99.90;;;;;;5078401;28;20024;-74
2021/09/18 08:25:10;;;;;;;190.68;92.93;;;16.70;99.90;;;;;;5073882;28;20044;-74
2021/09/18 08:27:37;;;;;;;173.73;89.13;;;16.80;99.90;;;;;;5071632;28;20071;-74
2021/09/18 08:30:05;;;;;;;112.35;59.30;;;16.90;99.90;;;;;;5078239;28;20481;-74
2021/09/18 08:32:30;;;;;;;199.52;97.95;;;17.10;99.90;;;;;;5075180;28;20025;-74
2021/09/18 08:34:56;;;;;;;204.70;102.88;;;17.20;99.90;;;;;;5070047;28;20495;-76
2021/09/18 08:37:22;;;;;;;190.40;100.10;;;17.30;99.90;;;;;;5077473;28;20070;-74
2021/09/18 08:39:47;;;;;;;240.02;110.75;;;17.20;99.90;;;;;;5073862;28;20546;-74
2021/09/18 08:42:15;;;;;;;228.52;115.55;;;17.40;99.90;;;;;;5073986;28;20129;-74
2021/09/18 08:44:40;;;;;;;250.60;121.32;;;17.50;99.90;;;;;;5075632;28;20024;-75
2021/09/18 08:47:06;;;;;;;237.43;118.55;;;17.50;99.90;;;;;;5070535;28;20032;-74
2021/09/18 08:49:32;;;;;;;192.43;96.00;;;17.50;99.90;;;;;;5077732;28;20024;-75
2021/09/18 08:52:02;;;;;;;211.98;104.03;;;17.50;99.90;;;;;;5077002;28;20369;-78
2021/09/18 08:54:28;;;;;;;233.55;109.70;;;17.60;99.90;;;;;;5064248;28;20095;-75
2021/09/18 08:56:54;;;;;;;207.02;103.07;;;17.60;99.90;;;;;;5069474;28;20124;-75
2021/09/18 08:59:19;;;;;;;186.95;97.63;;;17.70;99.90;;;;;;5074503;28;20508;-75
2021/09/18 09:01:47;;;;;;;199.43;100.28;;;17.70;99.90;;;;;;5074074;28;20117;-75
2021/09/18 09:04:13;;;;;;;177.50;95.13;;;17.70;99.90;;;;;;5074529;28;20481;-74
2021/09/18 09:06:47;;;;;;;171.73;91.97;;;17.80;99.90;;;;;;5068500;28;20035;-75
2021/09/18 09:09:13;;;;;;;162.27;89.20;;;17.90;99.90;;;;;;5066726;28;20112;-75
2021/09/18 09:11:51;;;;;;;170.65;96.40;;;18.00;99.90;;;;;;5073135;28;20565;-75
2021/09/18 09:14:17;;;;;;;163.32;89.53;;;18.10;99.90;;;;;;5077416;28;20396;-75
2021/09/18 09:17:06;;;;;;;157.15;89.35;;;18.20;99.90;;;;;;5076568;28;20027;-75
2021/09/18 09:19:41;;;;;;;141.05;81.45;;;18.40;99.90;;;;;;5075279;28;20393;-75
2021/09/18 09:22:06;;;;;;;131.00;76.53;;;18.50;99.90;;;;;;5078115;28;20437;-75
2021/09/18 09:24:32;;;;;;;134.73;74.65;;;18.70;99.90;;;;;;5069856;28;20096;-75
2021/09/18 09:27:14;;;;;;;138.32;78.43;;;18.80;99.90;;;;;;5075279;28;20146;-75
2021/09/18 09:29:45;;;;;;;131.38;74.53;;;19.00;99.90;;;;;;5074438;28;20040;-76
2021/09/18 09:32:37;;;;;;;134.70;74.93;;;19.20;99.90;;;;;;5069445;28;20028;-76
2021/09/18 09:35:09;;;;;;;129.03;73.97;;;19.30;99.90;;;;;;5070493;28;20080;-75
2021/09/18 09:37:35;;;;;;;123.20;68.07;;;19.40;99.90;;;;;;5070847;28;20473;-75
2021/09/18 09:40:08;;;;;;;114.53;67.72;;;19.50;99.90;;;;;;5068661;28;20145;-75
2021/09/18 09:42:41;;;;;;;110.57;68.82;;;19.60;99.90;;;;;;5068110;28;20385;-75
2021/09/18 09:45:22;;;;;;;107.60;65.90;;;19.80;99.90;;;;;;5067749;28;20021;-75
2021/09/18 09:48:05;;;;;;;103.20;64.00;;;19.90;99.90;;;;;;5071992;28;20469;-75
2021/09/18 09:50:31;;;;;;;101.40;61.47;;;20.10;99.90;;;;;;5069618;28;20060;-75
2021/09/18 09:52:58;;;;;;;90.55;55.28;;;20.20;99.90;;;;;;5074569;28;20025;-75
2021/09/18 09:55:24;;;;;;;83.85;52.10;;;20.30;99.90;;;;;;5065551;28;20024;-75
2021/09/18 09:57:59;;;;;;;86.93;52.97;;;20.40;99.90;;;;;;5061160;28;20116;-75
2021/09/18 10:00:42;;;;;;;69.07;45.20;;;20.60;99.90;;;;;;5065057;28;20021;-75
2021/09/18 10:03:09;;;;;;;63.92;43.30;;;20.70;99.90;;;;;;5068554;28;20385;-76
2021/09/18 10:05:35;;;;;;;59.67;38.30;;;20.80;99.90;;;;;;5073900;28;20081;-74
2021/09/18 10:08:02;;;;;;;58.40;39.28;;;20.90;99.90;;;;;;5044386;28;20039;-74
2021/09/18 10:10:29;;;;;;;61.20;41.40;;;21.10;99.90;;;;;;5068098;28;20058;-74
2021/09/18 10:12:56;;;;;;;60.03;38.25;;;21.30;99.90;;;;;;5066509;28;20052;-74
2021/09/18 10:15:26;;;;;;;53.75;36.67;;;21.40;99.90;;;;;;5066338;28;20564;-73
2021/09/18 10:17:55;;;;;;;52.42;36.92;;;21.50;99.90;;;;;;5065842;28;20016;-74
2021/09/18 10:25:37;;;;;;;44.42;31.83;;;21.80;99.90;;;;;;5066948;28;20516;-74
2021/09/18 10:28:16;;;;;;;50.63;34.55;;;21.80;99.90;;;;;;5081965;28;20028;-74
2021/09/18 10:30:51;;;;;;;48.22;34.55;;;22.00;99.90;;;;;;5064298;28;20546;-74
2021/09/18 10:33:37;;;;;;;47.50;33.58;;;22.00;99.90;;;;;;5065977;28;20029;-74
2021/09/18 10:36:03;;;;;;;40.92;27.70;;;22.00;99.90;;;;;;5060642;28;20096;-74
2021/09/18 10:38:37;;;;;;;36.50;25.60;;;22.00;99.90;;;;;;5066186;28;20124;-74
2021/09/18 10:41:09;;;;;;;31.77;24.55;;;22.10;99.90;;;;;;5066819;28;20044;-74
2021/09/18 10:43:42;;;;;;;31.70;22.05;;;22.20;99.90;;;;;;5061767;28;20031;-75
2021/09/18 10:46:12;;;;;;;31.92;24.17;;;22.30;99.90;;;;;;5091787;28;20436;-75
2021/09/18 10:48:47;;;;;;;33.50;25.13;;;22.40;99.90;;;;;;5067663;28;20546;-75
2021/09/18 10:51:39;;;;;;;26.50;20.90;;;22.50;99.90;;;;;;5066468;28;20029;-75
2021/09/18 10:54:10;;;;;;;27.83;21.38;;;22.50;99.90;;;;;;5065983;28;20081;-75
2021/09/18 10:57:06;;;;;;;28.00;19.38;;;22.60;99.90;;;;;;5069098;28;20032;-76
2021/09/18 10:59:37;;;;;;;25.27;19.67;;;22.60;99.90;;;;;;5067141;28;20036;-75
2021/09/18 11:02:29;;;;;;;24.95;18.45;;;22.80;99.90;;;;;;5066585;28;20028;-75
2021/09/18 11:04:55;;;;;;;21.70;17.30;;;22.90;99.90;;;;;;5055184;28;20043;-74
2021/09/18 11:07:39;;;;;;;20.33;16.52;;;23.00;99.90;;;;;;5076984;28;20111;-75
2021/09/18 11:10:26;;;;;;;17.27;14.10;;;23.00;99.90;;;;;;5077627;28;20040;-75
2021/09/18 11:13:10;;;;;;;18.90;13.52;;;23.20;99.90;;;;;;5066060;28;20041;-75
2021/09/18 11:15:39;;;;;;;18.13;11.65;;;23.10;99.90;;;;;;5081132;28;20113;-75
2021/09/18 11:18:08;;;;;;;13.77;11.70;;;23.20;99.90;;;;;;5079059;28;20149;-76
2021/09/18 11:20:35;;;;;;;18.67;13.55;;;23.20;99.90;;;;;;5075412;28;20033;-76
2021/09/18 11:23:02;;;;;;;18.17;13.48;;;23.30;99.90;;;;;;5079470;28;20024;-76
2021/09/18 11:25:34;;;;;;;13.20;10.20;;;23.30;99.90;;;;;;5079401;28;20119;-75
2021/09/18 11:28:06;;;;;;;13.38;9.77;;;23.40;99.90;;;;;;5072054;28;20032;-76
2021/09/18 11:30:41;;;;;;;11.68;9.73;;;23.40;99.90;;;;;;5074255;28;20700;-76
2021/09/18 11:33:07;;;;;;;8.48;7.63;;;23.60;99.90;;;;;;5071356;28;20129;-76
2021/09/18 11:35:38;;;;;;;11.52;8.02;;;23.50;99.90;;;;;;5072382;28;20380;-76
2021/09/18 11:38:06;;;;;;;7.03;5.90;;;23.50;99.90;;;;;;5078888;28;20438;-76
2021/09/18 11:40:34;;;;;;;7.70;6.32;;;23.50;99.90;;;;;;5077349;28;20017;-76
2021/09/18 11:43:00;;;;;;;8.85;6.13;;;23.60;99.90;;;;;;5081696;28;20052;-76
2021/09/18 11:45:27;;;;;;;6.53;4.85;;;23.50;99.90;;;;;;5077354;28;20078;-76
2021/09/18 11:47:56;;;;;;;7.97;6.47;;;23.60;99.90;;;;;;5075927;28;20032;-77
2021/09/18 11:50:29;;;;;;;9.55;6.03;;;23.50;99.90;;;;;;5075947;28;20036;-76
2021/09/18 11:53:00;;;;;;;7.35;4.85;;;23.60;99.90;;;;;;5076802;28;20043;-74
2021/09/18 11:55:29;;;;;;;9.98;5.22;;;23.60;99.90;;;;;;5066004;28;20099;-76
2021/09/18 11:58:08;;;;;;;7.38;5.15;;;23.60;99.90;;;;;;5075834;28;20031;-75
2021/09/18 12:00:35;;;;;;;6.28;5.68;;;23.70;99.90;;;;;;5071671;28;20028;-75
2021/09/18 12:03:01;;;;;;;8.32;4.90;;;23.70;99.90;;;;;;5076223;28;20083;-76
2021/09/18 12:05:27;;;;;;;8.00;4.82;;;23.80;99.90;;;;;;5078142;28;20028;-78
2021/09/18 12:07:53;;;;;;;7.15;6.43;;;23.80;99.90;;;;;;5075502;28;20013;-76
2021/09/18 12:10:21;;;;;;;6.95;6.22;;;23.80;99.90;;;;;;5075056;28;20091;-76
2021/09/18 12:12:54;;;;;;;9.45;7.25;;;23.80;99.90;;;;;;5074327;28;20039;-76
2021/09/18 12:15:40;;;;;;;9.50;6.38;;;23.80;99.90;;;;;;5075066;28;20076;-76
2021/09/18 12:18:07;;;;;;;7.70;5.55;;;23.80;99.90;;;;;;5075612;28;20158;-76
2021/09/18 12:20:36;;;;;;;6.75;4.30;;;23.80;99.90;;;;;;5078008;28;20024;-76
2021/09/18 12:23:03;;;;;;;7.45;6.65;;;23.90;99.90;;;;;;5077671;28;20082;-76
2021/09/18 12:25:31;;;;;;;9.35;6.57;;;23.90;99.90;;;;;;5074550;28;20032;-76
2021/09/18 12:28:01;;;;;;;10.20;5.57;;;23.90;99.90;;;;;;5071326;28;20369;-76
2021/09/18 12:30:41;;;;;;;7.45;6.45;;;23.90;99.90;;;;;;5079746;28;20029;-76
2021/09/18 12:33:14;;;;;;;15.93;8.15;;;24.00;99.90;;;;;;5072864;28;20115;-75
2021/09/18 12:35:47;;;;;;;10.68;7.88;;;23.90;99.90;;;;;;5077854;28;20078;-76